sensor_id;sensor_type;location;lat;lon;timestamp;temperature;humidity
19307;DHT22;9788;48.194;16.318;2023-11-22T00:01:32;8.00;99.90
19307;DHT22;9788;48.194;16.318;2023-11-22T00:04:01;8.00;99.90
19307;DHT22;9788;48.194;16.318;2023-11-22T00:06:30;7.90;99.90
19307;DHT22;9788;48.194;16.318;2023-11-22T00:08:58;7.90;99.90
19307;DHT22;9788;48.194;16.318;2023-11-22T00:11:26;7.90;99.90
19307;DHT22;9788;48.194;16.318;2023-11-22T00:13:55;7.90;99.90
19307;DHT22;9788;48.194;16.318;2023-11-22T00:16:24;7.90;99.90
19307;DHT22;9788;48.194;16.318;2023-11-22T00:18:54;7.90;99.90
19307;DHT22;9788;48.194;16.318;2023-11-22T00:21:22;7.90;99.90
19307;DHT22;9788;48.194;16.318;2023-11-22T00:23:50;7.80;99.90
19307;DHT22;9788;48.194;16.318;2023-11-22T00:26:18;7.80;99.90
19307;DHT22;9788;48.194;16.318;2023-11-22T00:28:46;7.80;99.90
19307;DHT22;9788;48.194;16.318;2023-11-22T00:31:16;7.80;99.90
19307;DHT22;9788;48.194;16.318;2023-11-22T00:33:44;7.70;99.90
19307;DHT22;9788;48.194;16.318;2023-11-22T00:36:14;7.70;99.90
19307;DHT22;9788;48.194;16.318;2023-11-22T00:38:44;7.70;99.90
19307;DHT22;9788;48.194;16.318;2023-11-22T00:41:12;7.60;99.90
19307;DHT22;9788;48.194;16.318;2023-11-22T00:43:41;7.60;99.90
19307;DHT22;9788;48.194;16.318;2023-11-22T00:46:09;7.60;99.90
19307;DHT22;9788;48.194;16.318;2023-11-22T00:48:38;7.60;99.90
19307;DHT22;9788;48.194;16.318;2023-11-22T00:51:06;7.60;99.90
19307;DHT22;9788;48.194;16.318;2023-11-22T00:53:38;7.60;99.90
19307;DHT22;9788;48.194;16.318;2023-11-22T00:56:07;7.50;99.90
19307;DHT22;9788;48.194;16.318;2023-11-22T00:58:35;7.50;99.90
19307;DHT22;9788;48.194;16.318;2023-11-22T01:01:04;7.40;99.90
19307;DHT22;9788;48.194;16.318;2023-11-22T01:03:32;7.40;99.90
19307;DHT22;9788;48.194;16.318;2023-11-22T01:06:00;7.40;99.90
19307;DHT22;9788;48.194;16.318;2023-11-22T01:08:28;7.30;99.90
19307;DHT22;9788;48.194;16.318;2023-11-22T01:10:58;7.20;99.90
19307;DHT22;9788;48.194;16.318;2023-11-22T01:13:26;7.20;99.90
19307;DHT22;9788;48.194;16.318;2023-11-22T01:15:55;7.00;99.90
19307;DHT22;9788;48.194;16.318;2023-11-22T01:18:23;7.00;99.90
19307;DHT22;9788;48.194;16.318;2023-11-22T01:20:51;6.90;99.90
19307;DHT22;9788;48.194;16.318;2023-11-22T01:23:19;6.80;99.90
19307;DHT22;9788;48.194;16.318;2023-11-22T01:25:48;6.70;99.90
19307;DHT22;9788;48.194;16.318;2023-11-22T01:28:21;6.70;99.90
19307;DHT22;9788;48.194;16.318;2023-11-22T01:30:49;6.60;99.90
19307;DHT22;9788;48.194;16.318;2023-11-22T01:33:17;6.60;99.90
19307;DHT22;9788;48.194;16.318;2023-11-22T01:35:47;6.60;99.90
19307;DHT22;9788;48.194;16.318;2023-11-22T01:38:16;6.50;99.90
19307;DHT22;9788;48.194;16.318;2023-11-22T01:40:45;6.40;99.90
19307;DHT22;9788;48.194;16.318;2023-11-22T01:43:14;6.40;99.90
19307;DHT22;9788;48.194;16.318;2023-11-22T01:45:46;6.40;99.90
19307;DHT22;9788;48.194;16.318;2023-11-22T01:48:15;6.40;99.90
19307;DHT22;9788;48.194;16.318;2023-11-22T01:50:44;6.40;99.90
19307;DHT22;9788;48.194;16.318;2023-11-22T01:53:13;6.40;99.90
19307;DHT22;9788;48.194;16.318;2023-11-22T01:55:43;6.40;99.90
19307;DHT22;9788;48.194;16.318;2023-11-22T01:58:13;6.40;99.90
19307;DHT22;9788;48.194;16.318;2023-11-22T02:00:45;6.40;99.90
19307;DHT22;9788;48.194;16.318;2023-11-22T02:03:16;6.40;99.90
19307;DHT22;9788;48.194;16.318;2023-11-22T02:05:49;6.30;99.90
19307;DHT22;9788;48.194;16.318;2023-11-22T02:08:18;6.30;99.90
19307;DHT22;9788;48.194;16.318;2023-11-22T02:10:56;6.30;99.90
19307;DHT22;9788;48.194;16.318;2023-11-22T02:13:27;6.30;99.90
19307;DHT22;9788;48.194;16.318;2023-11-22T02:15:58;6.30;99.90
19307;DHT22;9788;48.194;16.318;2023-11-22T02:18:28;6.20;99.90
19307;DHT22;9788;48.194;16.318;2023-11-22T02:20:57;6.20;99.90
19307;DHT22;9788;48.194;16.318;2023-11-22T02:23:27;6.20;99.90
19307;DHT22;9788;48.194;16.318;2023-11-22T02:25:56;6.20;99.90
19307;DHT22;9788;48.194;16.318;2023-11-22T02:28:25;6.10;99.90
19307;DHT22;9788;48.194;16.318;2023-11-22T02:30:53;6.10;99.90
19307;DHT22;9788;48.194;16.318;2023-11-22T02:33:22;6.00;99.90
19307;DHT22;9788;48.194;16.318;2023-11-22T02:35:50;6.00;99.90
19307;DHT22;9788;48.194;16.318;2023-11-22T02:38:18;6.00;99.90
19307;DHT22;9788;48.194;16.318;2023-11-22T02:40:50;6.00;99.90
19307;DHT22;9788;48.194;16.318;2023-11-22T02:43:19;5.90;99.90
19307;DHT22;9788;48.194;16.318;2023-11-22T02:45:48;5.90;99.90
19307;DHT22;9788;48.194;16.318;2023-11-22T02:48:16;5.90;99.90
19307;DHT22;9788;48.194;16.318;2023-11-22T02:50:45;5.90;99.90
19307;DHT22;9788;48.194;16.318;2023-11-22T02:53:13;5.80;99.90
19307;DHT22;9788;48.194;16.318;2023-11-22T02:55:42;5.80;99.90
19307;DHT22;9788;48.194;16.318;2023-11-22T02:58:11;5.80;99.90
19307;DHT22;9788;48.194;16.318;2023-11-22T03:00:40;5.70;99.90
19307;DHT22;9788;48.194;16.318;2023-11-22T03:03:08;5.70;99.90
19307;DHT22;9788;48.194;16.318;2023-11-22T03:05:38;5.60;99.90
19307;DHT22;9788;48.194;16.318;2023-11-22T03:08:07;5.60;99.90
19307;DHT22;9788;48.194;16.318;2023-11-22T03:10:37;5.60;99.90
19307;DHT22;9788;48.194;16.318;2023-11-22T03:13:05;5.60;99.90
19307;DHT22;9788;48.194;16.318;2023-11-22T03:15:36;5.50;99.90
19307;DHT22;9788;48.194;16.318;2023-11-22T03:18:05;5.50;99.90
19307;DHT22;9788;48.194;16.318;2023-11-22T03:20:34;5.50;99.90
19307;DHT22;9788;48.194;16.318;2023-11-22T03:23:03;5.50;99.90
19307;DHT22;9788;48.194;16.318;2023-11-22T03:25:32;5.50;99.90
19307;DHT22;9788;48.194;16.318;2023-11-22T03:28:00;5.50;99.90
19307;DHT22;9788;48.194;16.318;2023-11-22T03:30:28;5.40;99.90
19307;DHT22;9788;48.194;16.318;2023-11-22T03:32:58;5.40;99.90
19307;DHT22;9788;48.194;16.318;2023-11-22T03:35:26;5.40;99.90
19307;DHT22;9788;48.194;16.318;2023-11-22T03:37:56;5.40;99.90
19307;DHT22;9788;48.194;16.318;2023-11-22T03:40:24;5.50;99.90
19307;DHT22;9788;48.194;16.318;2023-11-22T03:42:52;5.40;99.90
19307;DHT22;9788;48.194;16.318;2023-11-22T03:45:20;5.40;99.90
19307;DHT22;9788;48.194;16.318;2023-11-22T03:47:49;5.40;99.90
19307;DHT22;9788;48.194;16.318;2023-11-22T03:50:18;5.40;99.90
19307;DHT22;9788;48.194;16.318;2023-11-22T03:52:47;5.30;99.90
19307;DHT22;9788;48.194;16.318;2023-11-22T03:55:15;5.30;99.90
19307;DHT22;9788;48.194;16.318;2023-11-22T03:57:43;5.20;99.90
19307;DHT22;9788;48.194;16.318;2023-11-22T04:00:12;5.20;99.90
19307;DHT22;9788;48.194;16.318;2023-11-22T04:02:40;5.20;99.90
19307;DHT22;9788;48.194;16.318;2023-11-22T04:05:10;5.20;99.90
19307;DHT22;9788;48.194;16.318;2023-11-22T04:07:40;5.20;99.90
19307;DHT22;9788;48.194;16.318;2023-11-22T04:10:09;5.20;99.90
19307;DHT22;9788;48.194;16.318;2023-11-22T04:12:37;5.20;99.90
19307;DHT22;9788;48.194;16.318;2023-11-22T04:15:08;5.20;99.90
19307;DHT22;9788;48.194;16.318;2023-11-22T04:17:38;5.20;99.90
19307;DHT22;9788;48.194;16.318;2023-11-22T04:20:08;5.20;99.90
19307;DHT22;9788;48.194;16.318;2023-11-22T04:22:37;5.20;99.90
19307;DHT22;9788;48.194;16.318;2023-11-22T04:25:08;5.10;99.90
19307;DHT22;9788;48.194;16.318;2023-11-22T04:27:36;5.10;99.90
19307;DHT22;9788;48.194;16.318;2023-11-22T04:30:06;5.10;99.90
19307;DHT22;9788;48.194;16.318;2023-11-22T04:32:35;5.10;99.90
19307;DHT22;9788;48.194;16.318;2023-11-22T04:35:05;5.10;99.90
19307;DHT22;9788;48.194;16.318;2023-11-22T04:37:33;5.00;99.90
19307;DHT22;9788;48.194;16.318;2023-11-22T04:40:03;5.00;99.90
19307;DHT22;9788;48.194;16.318;2023-11-22T04:42:36;5.00;99.90
19307;DHT22;9788;48.194;16.318;2023-11-22T04:45:05;5.00;99.90
19307;DHT22;9788;48.194;16.318;2023-11-22T04:47:34;5.00;99.90
19307;DHT22;9788;48.194;16.318;2023-11-22T04:50:02;5.00;99.90
19307;DHT22;9788;48.194;16.318;2023-11-22T04:52:32;5.00;99.90
19307;DHT22;9788;48.194;16.318;2023-11-22T04:55:00;4.90;99.90
19307;DHT22;9788;48.194;16.318;2023-11-22T04:57:28;4.90;99.90
19307;DHT22;9788;48.194;16.318;2023-11-22T04:59:58;4.80;99.90
19307;DHT22;9788;48.194;16.318;2023-11-22T05:05:34;4.70;99.90
19307;DHT22;9788;48.194;16.318;2023-11-22T05:08:05;4.70;99.90
19307;DHT22;9788;48.194;16.318;2023-11-22T05:10:33;4.70;99.90
19307;DHT22;9788;48.194;16.318;2023-11-22T05:13:01;4.70;99.90
19307;DHT22;9788;48.194;16.318;2023-11-22T05:15:31;4.60;99.90
19307;DHT22;9788;48.194;16.318;2023-11-22T05:18:00;4.60;99.90
19307;DHT22;9788;48.194;16.318;2023-11-22T05:20:29;4.60;99.90
19307;DHT22;9788;48.194;16.318;2023-11-22T05:22:58;4.60;99.90
19307;DHT22;9788;48.194;16.318;2023-11-22T05:25:28;4.60;99.90
19307;DHT22;9788;48.194;16.318;2023-11-22T05:27:56;4.60;99.90
19307;DHT22;9788;48.194;16.318;2023-11-22T05:30:25;4.70;99.90
19307;DHT22;9788;48.194;16.318;2023-11-22T05:32:58;4.70;99.90
19307;DHT22;9788;48.194;16.318;2023-11-22T05:35:26;4.60;99.90
19307;DHT22;9788;48.194;16.318;2023-11-22T05:37:55;4.60;99.90
19307;DHT22;9788;48.194;16.318;2023-11-22T05:40:24;4.60;99.90
19307;DHT22;9788;48.194;16.318;2023-11-22T05:42:52;4.60;99.90
19307;DHT22;9788;48.194;16.318;2023-11-22T05:45:20;4.60;99.90
19307;DHT22;9788;48.194;16.318;2023-11-22T05:47:48;4.70;99.90
19307;DHT22;9788;48.194;16.318;2023-11-22T05:50:18;4.70;99.90
19307;DHT22;9788;48.194;16.318;2023-11-22T05:52:46;4.60;99.90
19307;DHT22;9788;48.194;16.318;2023-11-22T05:55:15;4.60;99.90
19307;DHT22;9788;48.194;16.318;2023-11-22T05:57:45;4.60;99.90
19307;DHT22;9788;48.194;16.318;2023-11-22T06:00:13;4.60;99.90
19307;DHT22;9788;48.194;16.318;2023-11-22T06:02:44;4.60;99.90
19307;DHT22;9788;48.194;16.318;2023-11-22T06:05:12;4.50;99.90
19307;DHT22;9788;48.194;16.318;2023-11-22T06:07:42;4.60;99.90
19307;DHT22;9788;48.194;16.318;2023-11-22T06:10:10;4.60;99.90
19307;DHT22;9788;48.194;16.318;2023-11-22T06:12:40;4.60;99.90
19307;DHT22;9788;48.194;16.318;2023-11-22T06:15:10;4.60;99.90
19307;DHT22;9788;48.194;16.318;2023-11-22T06:17:38;4.70;99.90
19307;DHT22;9788;48.194;16.318;2023-11-22T06:20:08;4.70;99.90
19307;DHT22;9788;48.194;16.318;2023-11-22T06:22:38;4.70;99.90
19307;DHT22;9788;48.194;16.318;2023-11-22T06:25:10;4.70;99.90
19307;DHT22;9788;48.194;16.318;2023-11-22T06:27:39;4.60;99.90
19307;DHT22;9788;48.194;16.318;2023-11-22T06:30:07;4.70;99.90
19307;DHT22;9788;48.194;16.318;2023-11-22T06:32:39;4.70;99.90
19307;DHT22;9788;48.194;16.318;2023-11-22T06:35:09;4.70;99.90
19307;DHT22;9788;48.194;16.318;2023-11-22T06:37:40;4.60;99.90
19307;DHT22;9788;48.194;16.318;2023-11-22T06:40:11;4.60;99.90
19307;DHT22;9788;48.194;16.318;2023-11-22T06:42:40;4.50;99.90
19307;DHT22;9788;48.194;16.318;2023-11-22T06:45:09;4.40;99.90
19307;DHT22;9788;48.194;16.318;2023-11-22T06:47:43;4.40;99.90
19307;DHT22;9788;48.194;16.318;2023-11-22T06:50:11;4.50;99.90
19307;DHT22;9788;48.194;16.318;2023-11-22T06:52:40;4.60;99.90
19307;DHT22;9788;48.194;16.318;2023-11-22T06:55:16;4.70;99.90
19307;DHT22;9788;48.194;16.318;2023-11-22T06:57:45;4.70;99.90
19307;DHT22;9788;48.194;16.318;2023-11-22T07:00:13;4.70;99.90
19307;DHT22;9788;48.194;16.318;2023-11-22T07:02:43;4.70;99.90
19307;DHT22;9788;48.194;16.318;2023-11-22T07:05:12;4.70;99.90
19307;DHT22;9788;48.194;16.318;2023-11-22T07:07:49;4.70;99.90
19307;DHT22;9788;48.194;16.318;2023-11-22T07:10:19;4.70;99.90
19307;DHT22;9788;48.194;16.318;2023-11-22T07:12:49;4.70;99.90
19307;DHT22;9788;48.194;16.318;2023-11-22T07:15:17;4.70;99.90
19307;DHT22;9788;48.194;16.318;2023-11-22T07:18:11;4.70;99.90
19307;DHT22;9788;48.194;16.318;2023-11-22T07:20:41;4.60;99.90
19307;DHT22;9788;48.194;16.318;2023-11-22T07:23:09;4.60;99.90
19307;DHT22;9788;48.194;16.318;2023-11-22T07:25:40;4.50;99.90
19307;DHT22;9788;48.194;16.318;2023-11-22T07:28:10;4.60;99.90
19307;DHT22;9788;48.194;16.318;2023-11-22T07:30:38;4.60;99.90
19307;DHT22;9788;48.194;16.318;2023-11-22T07:33:08;4.50;99.90
19307;DHT22;9788;48.194;16.318;2023-11-22T07:35:39;4.60;99.90
19307;DHT22;9788;48.194;16.318;2023-11-22T07:38:07;4.70;99.90
19307;DHT22;9788;48.194;16.318;2023-11-22T07:40:38;4.70;99.90
19307;DHT22;9788;48.194;16.318;2023-11-22T07:43:06;4.70;99.90
19307;DHT22;9788;48.194;16.318;2023-11-22T07:45:35;4.60;99.90
19307;DHT22;9788;48.194;16.318;2023-11-22T07:48:04;4.70;99.90
19307;DHT22;9788;48.194;16.318;2023-11-22T07:50:35;4.70;99.90
19307;DHT22;9788;48.194;16.318;2023-11-22T07:53:06;4.70;99.90
19307;DHT22;9788;48.194;16.318;2023-11-22T07:55:36;4.80;99.90
19307;DHT22;9788;48.194;16.318;2023-11-22T07:58:04;4.80;99.90
19307;DHT22;9788;48.194;16.318;2023-11-22T08:00:36;4.80;99.90
19307;DHT22;9788;48.194;16.318;2023-11-22T08:03:05;4.80;99.90
19307;DHT22;9788;48.194;16.318;2023-11-22T08:05:36;4.80;99.90
19307;DHT22;9788;48.194;16.318;2023-11-22T08:08:09;4.80;99.90
19307;DHT22;9788;48.194;16.318;2023-11-22T08:10:40;4.90;99.90
19307;DHT22;9788;48.194;16.318;2023-11-22T08:13:10;4.80;99.90
19307;DHT22;9788;48.194;16.318;2023-11-22T08:15:38;4.70;99.90
19307;DHT22;9788;48.194;16.318;2023-11-22T08:18:06;4.70;99.90
19307;DHT22;9788;48.194;16.318;2023-11-22T08:20:34;4.70;99.90
19307;DHT22;9788;48.194;16.318;2023-11-22T08:23:05;4.70;99.90
19307;DHT22;9788;48.194;16.318;2023-11-22T08:25:40;4.60;99.90
19307;DHT22;9788;48.194;16.318;2023-11-22T08:28:10;4.60;99.90
19307;DHT22;9788;48.194;16.318;2023-11-22T08:30:39;4.60;99.90
19307;DHT22;9788;48.194;16.318;2023-11-22T08:33:08;4.60;99.90
19307;DHT22;9788;48.194;16.318;2023-11-22T08:35:41;4.70;99.90
19307;DHT22;9788;48.194;16.318;2023-11-22T08:38:10;4.70;99.90
19307;DHT22;9788;48.194;16.318;2023-11-22T08:40:39;4.60;99.90
19307;DHT22;9788;48.194;16.318;2023-11-22T08:43:08;4.60;99.90
19307;DHT22;9788;48.194;16.318;2023-11-22T08:45:36;4.70;99.90
19307;DHT22;9788;48.194;16.318;2023-11-22T08:48:04;4.70;99.90
19307;DHT22;9788;48.194;16.318;2023-11-22T08:50:33;4.70;99.90
19307;DHT22;9788;48.194;16.318;2023-11-22T08:53:04;4.80;99.90
19307;DHT22;9788;48.194;16.318;2023-11-22T08:55:34;4.90;99.90
19307;DHT22;9788;48.194;16.318;2023-11-22T08:58:03;5.00;99.90
19307;DHT22;9788;48.194;16.318;2023-11-22T09:00:38;5.00;99.90
19307;DHT22;9788;48.194;16.318;2023-11-22T09:03:08;5.00;99.90
19307;DHT22;9788;48.194;16.318;2023-11-22T09:05:38;4.90;99.90
19307;DHT22;9788;48.194;16.318;2023-11-22T09:08:09;4.80;99.90
19307;DHT22;9788;48.194;16.318;2023-11-22T09:10:51;4.70;99.90
19307;DHT22;9788;48.194;16.318;2023-11-22T09:13:21;4.60;99.90
19307;DHT22;9788;48.194;16.318;2023-11-22T09:15:49;4.60;99.90
19307;DHT22;9788;48.194;16.318;2023-11-22T09:18:17;4.60;99.90
19307;DHT22;9788;48.194;16.318;2023-11-22T09:20:46;4.80;99.90
19307;DHT22;9788;48.194;16.318;2023-11-22T09:23:15;5.10;99.90
19307;DHT22;9788;48.194;16.318;2023-11-22T09:25:47;5.40;99.90
19307;DHT22;9788;48.194;16.318;2023-11-22T09:28:21;5.60;99.90
19307;DHT22;9788;48.194;16.318;2023-11-22T09:30:51;5.80;99.90
19307;DHT22;9788;48.194;16.318;2023-11-22T09:33:19;6.00;99.90
19307;DHT22;9788;48.194;16.318;2023-11-22T09:35:48;6.30;99.90
19307;DHT22;9788;48.194;16.318;2023-11-22T09:38:17;6.40;99.90
19307;DHT22;9788;48.194;16.318;2023-11-22T09:40:46;6.50;99.90
19307;DHT22;9788;48.194;16.318;2023-11-22T09:43:17;6.30;99.90
19307;DHT22;9788;48.194;16.318;2023-11-22T09:45:47;6.20;99.90
19307;DHT22;9788;48.194;16.318;2023-11-22T09:48:24;5.80;99.90
19307;DHT22;9788;48.194;16.318;2023-11-22T09:50:58;5.80;99.90
19307;DHT22;9788;48.194;16.318;2023-11-22T09:53:32;6.00;99.90
19307;DHT22;9788;48.194;16.318;2023-11-22T09:56:04;6.40;99.90
19307;DHT22;9788;48.194;16.318;2023-11-22T09:58:51;6.50;99.90
19307;DHT22;9788;48.194;16.318;2023-11-22T10:01:23;6.20;99.90
19307;DHT22;9788;48.194;16.318;2023-11-22T10:03:53;5.90;99.90
19307;DHT22;9788;48.194;16.318;2023-11-22T10:06:23;5.80;99.90
19307;DHT22;9788;48.194;16.318;2023-11-22T10:08:51;5.90;99.90
19307;DHT22;9788;48.194;16.318;2023-11-22T10:11:23;5.80;99.90
19307;DHT22;9788;48.194;16.318;2023-11-22T10:13:52;5.40;99.90
19307;DHT22;9788;48.194;16.318;2023-11-22T10:16:20;5.10;99.90
19307;DHT22;9788;48.194;16.318;2023-11-22T10:18:49;5.10;99.90
19307;DHT22;9788;48.194;16.318;2023-11-22T10:21:23;5.10;99.90
19307;DHT22;9788;48.194;16.318;2023-11-22T10:23:53;5.00;99.90
19307;DHT22;9788;48.194;16.318;2023-11-22T10:26:24;5.20;99.90
19307;DHT22;9788;48.194;16.318;2023-11-22T10:28:55;5.30;99.90
19307;DHT22;9788;48.194;16.318;2023-11-22T10:31:24;5.20;99.90
19307;DHT22;9788;48.194;16.318;2023-11-22T10:33:53;5.10;99.90
19307;DHT22;9788;48.194;16.318;2023-11-22T10:36:24;5.10;99.90
19307;DHT22;9788;48.194;16.318;2023-11-22T10:38:52;4.90;99.90
19307;DHT22;9788;48.194;16.318;2023-11-22T10:41:21;4.90;99.90
19307;DHT22;9788;48.194;16.318;2023-11-22T10:43:52;4.80;99.90
19307;DHT22;9788;48.194;16.318;2023-11-22T10:46:21;4.80;99.90
19307;DHT22;9788;48.194;16.318;2023-11-22T10:48:55;4.80;99.90
19307;DHT22;9788;48.194;16.318;2023-11-22T10:51:30;4.80;99.90
19307;DHT22;9788;48.194;16.318;2023-11-22T10:54:00;4.80;99.90
19307;DHT22;9788;48.194;16.318;2023-11-22T10:56:36;4.70;99.90
19307;DHT22;9788;48.194;16.318;2023-11-22T10:59:10;4.80;99.90
19307;DHT22;9788;48.194;16.318;2023-11-22T11:01:44;4.80;99.90
19307;DHT22;9788;48.194;16.318;2023-11-22T11:04:19;4.70;99.90
19307;DHT22;9788;48.194;16.318;2023-11-22T11:06:51;4.70;99.90
19307;DHT22;9788;48.194;16.318;2023-11-22T11:09:23;4.70;99.90
19307;DHT22;9788;48.194;16.318;2023-11-22T11:11:56;4.80;99.90
19307;DHT22;9788;48.194;16.318;2023-11-22T11:14:26;4.90;99.90
19307;DHT22;9788;48.194;16.318;2023-11-22T11:16:55;4.80;99.90
19307;DHT22;9788;48.194;16.318;2023-11-22T11:19:26;4.80;99.90
19307;DHT22;9788;48.194;16.318;2023-11-22T11:21:56;4.80;99.90
19307;DHT22;9788;48.194;16.318;2023-11-22T11:24:25;4.70;99.90
19307;DHT22;9788;48.194;16.318;2023-11-22T11:26:53;4.80;99.90
19307;DHT22;9788;48.194;16.318;2023-11-22T11:29:31;4.80;99.90
19307;DHT22;9788;48.194;16.318;2023-11-22T11:32:03;4.80;99.90
19307;DHT22;9788;48.194;16.318;2023-11-22T11:34:32;4.80;99.90
19307;DHT22;9788;48.194;16.318;2023-11-22T11:37:11;4.80;99.90
19307;DHT22;9788;48.194;16.318;2023-11-22T11:39:40;4.70;99.90
19307;DHT22;9788;48.194;16.318;2023-11-22T11:42:09;4.60;99.90
19307;DHT22;9788;48.194;16.318;2023-11-22T11:45:03;4.60;99.90
19307;DHT22;9788;48.194;16.318;2023-11-22T11:47:33;4.60;99.90
19307;DHT22;9788;48.194;16.318;2023-11-22T11:50:02;4.60;99.90
19307;DHT22;9788;48.194;16.318;2023-11-22T11:52:33;4.60;99.90
19307;DHT22;9788;48.194;16.318;2023-11-22T11:55:03;4.60;99.90
19307;DHT22;9788;48.194;16.318;2023-11-22T11:57:32;4.50;99.90
19307;DHT22;9788;48.194;16.318;2023-11-22T12:00:00;4.60;99.90
19307;DHT22;9788;48.194;16.318;2023-11-22T12:02:30;4.70;99.90
19307;DHT22;9788;48.194;16.318;2023-11-22T12:04:59;4.80;99.90
19307;DHT22;9788;48.194;16.318;2023-11-22T12:07:28;4.90;99.90
19307;DHT22;9788;48.194;16.318;2023-11-22T12:09:57;5.00;99.90
19307;DHT22;9788;48.194;16.318;2023-11-22T12:12:25;5.00;99.90
19307;DHT22;9788;48.194;16.318;2023-11-22T12:14:53;4.80;99.90
19307;DHT22;9788;48.194;16.318;2023-11-22T12:17:22;4.70;99.90
19307;DHT22;9788;48.194;16.318;2023-11-22T12:19:51;4.70;99.90
19307;DHT22;9788;48.194;16.318;2023-11-22T12:22:22;4.70;99.90
19307;DHT22;9788;48.194;16.318;2023-11-22T12:24:50;4.70;99.90
19307;DHT22;9788;48.194;16.318;2023-11-22T12:27:22;4.70;99.90
19307;DHT22;9788;48.194;16.318;2023-11-22T12:29:51;4.80;99.90
19307;DHT22;9788;48.194;16.318;2023-11-22T12:32:23;4.90;99.90
19307;DHT22;9788;48.194;16.318;2023-11-22T12:34:51;5.00;99.90
19307;DHT22;9788;48.194;16.318;2023-11-22T12:37:20;4.90;99.90
19307;DHT22;9788;48.194;16.318;2023-11-22T12:39:48;4.90;99.90
19307;DHT22;9788;48.194;16.318;2023-11-22T12:42:21;4.90;99.90
19307;DHT22;9788;48.194;16.318;2023-11-22T12:44:50;5.00;99.90
19307;DHT22;9788;48.194;16.318;2023-11-22T12:47:35;5.00;99.90
19307;DHT22;9788;48.194;16.318;2023-11-22T12:50:04;4.90;99.90
19307;DHT22;9788;48.194;16.318;2023-11-22T12:52:34;4.90;99.90
19307;DHT22;9788;48.194;16.318;2023-11-22T12:55:02;4.90;99.90
19307;DHT22;9788;48.194;16.318;2023-11-22T12:57:35;4.90;99.90
19307;DHT22;9788;48.194;16.318;2023-11-22T13:00:07;5.00;99.90
19307;DHT22;9788;48.194;16.318;2023-11-22T13:02:35;4.90;99.90
19307;DHT22;9788;48.194;16.318;2023-11-22T13:05:15;4.90;99.90
19307;DHT22;9788;48.194;16.318;2023-11-22T13:07:44;4.80;99.90
19307;DHT22;9788;48.194;16.318;2023-11-22T13:10:12;4.80;99.90
19307;DHT22;9788;48.194;16.318;2023-11-22T13:12:44;4.80;99.90
19307;DHT22;9788;48.194;16.318;2023-11-22T13:15:12;4.70;99.90
19307;DHT22;9788;48.194;16.318;2023-11-22T13:17:41;4.70;99.90
19307;DHT22;9788;48.194;16.318;2023-11-22T13:20:09;4.70;99.90
19307;DHT22;9788;48.194;16.318;2023-11-22T13:22:41;4.60;99.90
19307;DHT22;9788;48.194;16.318;2023-11-22T13:25:10;4.40;99.90
19307;DHT22;9788;48.194;16.318;2023-11-22T13:27:38;4.40;99.90
19307;DHT22;9788;48.194;16.318;2023-11-22T13:30:09;4.40;99.90
19307;DHT22;9788;48.194;16.318;2023-11-22T13:32:38;4.50;99.90
19307;DHT22;9788;48.194;16.318;2023-11-22T13:35:10;4.50;99.90
19307;DHT22;9788;48.194;16.318;2023-11-22T13:37:42;4.60;99.90
19307;DHT22;9788;48.194;16.318;2023-11-22T13:40:11;4.50;99.90
19307;DHT22;9788;48.194;16.318;2023-11-22T13:42:43;4.50;99.90
19307;DHT22;9788;48.194;16.318;2023-11-22T13:45:14;4.50;99.90
19307;DHT22;9788;48.194;16.318;2023-11-22T13:47:44;4.50;99.90
19307;DHT22;9788;48.194;16.318;2023-11-22T13:50:14;4.50;99.90
19307;DHT22;9788;48.194;16.318;2023-11-22T13:52:46;4.40;99.90
19307;DHT22;9788;48.194;16.318;2023-11-22T13:55:17;4.50;99.90
19307;DHT22;9788;48.194;16.318;2023-11-22T13:57:50;4.50;99.90
19307;DHT22;9788;48.194;16.318;2023-11-22T14:00:20;4.50;99.90
19307;DHT22;9788;48.194;16.318;2023-11-22T14:02:50;4.60;99.90
19307;DHT22;9788;48.194;16.318;2023-11-22T14:05:19;4.60;99.90
19307;DHT22;9788;48.194;16.318;2023-11-22T14:07:48;4.50;99.90
19307;DHT22;9788;48.194;16.318;2023-11-22T14:10:18;4.40;99.90
19307;DHT22;9788;48.194;16.318;2023-11-22T14:12:51;4.50;99.90
19307;DHT22;9788;48.194;16.318;2023-11-22T14:15:21;4.40;99.90
19307;DHT22;9788;48.194;16.318;2023-11-22T14:17:50;4.40;99.90
19307;DHT22;9788;48.194;16.318;2023-11-22T14:20:20;4.30;99.90
19307;DHT22;9788;48.194;16.318;2023-11-22T14:22:49;4.40;99.90
19307;DHT22;9788;48.194;16.318;2023-11-22T14:25:19;4.40;99.90
19307;DHT22;9788;48.194;16.318;2023-11-22T14:27:48;4.30;99.90
19307;DHT22;9788;48.194;16.318;2023-11-22T14:30:23;4.30;99.90
19307;DHT22;9788;48.194;16.318;2023-11-22T14:32:54;4.30;99.90
19307;DHT22;9788;48.194;16.318;2023-11-22T14:35:22;4.30;99.90
19307;DHT22;9788;48.194;16.318;2023-11-22T14:37:51;4.30;99.90
19307;DHT22;9788;48.194;16.318;2023-11-22T14:40:20;4.30;99.90
19307;DHT22;9788;48.194;16.318;2023-11-22T14:42:50;4.30;99.90
19307;DHT22;9788;48.194;16.318;2023-11-22T14:45:19;4.30;99.90
19307;DHT22;9788;48.194;16.318;2023-11-22T14:47:49;4.30;99.90
19307;DHT22;9788;48.194;16.318;2023-11-22T14:50:19;4.20;99.90
19307;DHT22;9788;48.194;16.318;2023-11-22T14:52:48;4.20;99.90
19307;DHT22;9788;48.194;16.318;2023-11-22T14:55:18;4.20;99.90
19307;DHT22;9788;48.194;16.318;2023-11-22T14:57:48;4.20;99.90
19307;DHT22;9788;48.194;16.318;2023-11-22T15:00:17;4.20;99.90
19307;DHT22;9788;48.194;16.318;2023-11-22T15:02:48;4.20;99.90
19307;DHT22;9788;48.194;16.318;2023-11-22T15:05:21;4.10;99.90
19307;DHT22;9788;48.194;16.318;2023-11-22T15:07:51;4.10;99.90
19307;DHT22;9788;48.194;16.318;2023-11-22T15:10:22;4.10;99.90
19307;DHT22;9788;48.194;16.318;2023-11-22T15:12:54;4.10;99.90
19307;DHT22;9788;48.194;16.318;2023-11-22T15:15:26;4.10;99.90
19307;DHT22;9788;48.194;16.318;2023-11-22T15:17:55;4.10;99.90
19307;DHT22;9788;48.194;16.318;2023-11-22T15:20:24;4.10;99.90
19307;DHT22;9788;48.194;16.318;2023-11-22T15:22:53;4.10;99.90
19307;DHT22;9788;48.194;16.318;2023-11-22T15:25:21;4.10;99.90
19307;DHT22;9788;48.194;16.318;2023-11-22T15:27:49;4.10;99.90
19307;DHT22;9788;48.194;16.318;2023-11-22T15:30:17;4.10;99.90
19307;DHT22;9788;48.194;16.318;2023-11-22T15:32:46;4.10;99.90
19307;DHT22;9788;48.194;16.318;2023-11-22T15:35:17;4.10;99.90
19307;DHT22;9788;48.194;16.318;2023-11-22T15:37:45;4.10;99.90
19307;DHT22;9788;48.194;16.318;2023-11-22T15:40:13;4.00;99.90
19307;DHT22;9788;48.194;16.318;2023-11-22T15:42:44;4.00;99.90
19307;DHT22;9788;48.194;16.318;2023-11-22T15:45:13;4.10;99.90
19307;DHT22;9788;48.194;16.318;2023-11-22T15:47:43;4.10;99.90
19307;DHT22;9788;48.194;16.318;2023-11-22T15:50:14;4.10;99.90
19307;DHT22;9788;48.194;16.318;2023-11-22T15:52:44;4.10;99.90
19307;DHT22;9788;48.194;16.318;2023-11-22T15:55:13;4.10;99.90
19307;DHT22;9788;48.194;16.318;2023-11-22T15:57:41;4.10;99.90
19307;DHT22;9788;48.194;16.318;2023-11-22T16:00:10;4.00;99.90
19307;DHT22;9788;48.194;16.318;2023-11-22T16:02:39;4.10;99.90
19307;DHT22;9788;48.194;16.318;2023-11-22T16:05:07;4.10;99.90